sensor_id;sensor_type;location;lat;lon;timestamp;temperature;humidity
47961;DHT22;33721;48.852;9.936;2022-10-24T00:01:21;17.30;99.90
47961;DHT22;33721;48.852;9.936;2022-10-24T00:03:47;17.30;99.90
47961;DHT22;33721;48.852;9.936;2022-10-24T00:06:14;17.20;99.90
47961;DHT22;33721;48.852;9.936;2022-10-24T00:08:41;17.20;99.90
47961;DHT22;33721;48.852;9.936;2022-10-24T00:11:14;17.20;99.90
47961;DHT22;33721;48.852;9.936;2022-10-24T00:13:40;17.10;99.90
47961;DHT22;33721;48.852;9.936;2022-10-24T00:16:06;17.10;99.90
47961;DHT22;33721;48.852;9.936;2022-10-24T00:18:32;17.10;99.90
47961;DHT22;33721;48.852;9.936;2022-10-24T00:20:58;17.00;99.90
47961;DHT22;33721;48.852;9.936;2022-10-24T00:23:23;17.00;99.90
47961;DHT22;33721;48.852;9.936;2022-10-24T00:25:49;16.90;99.90
47961;DHT22;33721;48.852;9.936;2022-10-24T00:28:16;16.80;99.90
47961;DHT22;33721;48.852;9.936;2022-10-24T00:30:42;16.60;99.90
47961;DHT22;33721;48.852;9.936;2022-10-24T00:33:07;16.60;99.90
47961;DHT22;33721;48.852;9.936;2022-10-24T00:35:33;16.50;99.90
47961;DHT22;33721;48.852;9.936;2022-10-24T00:37:59;16.50;99.90
47961;DHT22;33721;48.852;9.936;2022-10-24T00:40:24;16.40;99.90
47961;DHT22;33721;48.852;9.936;2022-10-24T00:42:50;16.40;99.90
47961;DHT22;33721;48.852;9.936;2022-10-24T00:45:39;16.20;99.90
47961;DHT22;33721;48.852;9.936;2022-10-24T00:50:40;16.00;99.90
47961;DHT22;33721;48.852;9.936;2022-10-24T00:53:07;15.90;99.90
47961;DHT22;33721;48.852;9.936;2022-10-24T00:55:33;15.80;99.90
47961;DHT22;33721;48.852;9.936;2022-10-24T00:57:59;15.80;99.90
47961;DHT22;33721;48.852;9.936;2022-10-24T01:00:30;15.70;99.90
47961;DHT22;33721;48.852;9.936;2022-10-24T01:02:56;15.70;99.90
47961;DHT22;33721;48.852;9.936;2022-10-24T01:05:25;15.90;99.90
47961;DHT22;33721;48.852;9.936;2022-10-24T01:16:01;16.30;99.90
47961;DHT22;33721;48.852;9.936;2022-10-24T01:18:31;16.30;99.90
47961;DHT22;33721;48.852;9.936;2022-10-24T01:23:48;16.50;99.90
47961;DHT22;33721;48.852;9.936;2022-10-24T01:26:45;16.60;99.90
47961;DHT22;33721;48.852;9.936;2022-10-24T01:29:43;16.50;99.90
47961;DHT22;33721;48.852;9.936;2022-10-24T01:32:18;16.50;99.90
47961;DHT22;33721;48.852;9.936;2022-10-24T01:35:11;16.40;99.90
47961;DHT22;33721;48.852;9.936;2022-10-24T01:37:42;16.30;99.90
47961;DHT22;33721;48.852;9.936;2022-10-24T01:40:16;16.30;99.90
47961;DHT22;33721;48.852;9.936;2022-10-24T01:42:44;16.30;99.90
47961;DHT22;33721;48.852;9.936;2022-10-24T01:45:15;16.20;99.90
47961;DHT22;33721;48.852;9.936;2022-10-24T01:47:48;16.10;99.90
47961;DHT22;33721;48.852;9.936;2022-10-24T01:50:15;15.90;99.90
47961;DHT22;33721;48.852;9.936;2022-10-24T01:52:45;15.70;99.90
47961;DHT22;33721;48.852;9.936;2022-10-24T01:55:11;15.60;99.90
47961;DHT22;33721;48.852;9.936;2022-10-24T01:57:37;15.70;99.90
47961;DHT22;33721;48.852;9.936;2022-10-24T02:00:05;15.80;99.90
47961;DHT22;33721;48.852;9.936;2022-10-24T02:02:58;15.70;99.90
47961;DHT22;33721;48.852;9.936;2022-10-24T02:05:32;15.70;99.90
47961;DHT22;33721;48.852;9.936;2022-10-24T02:08:03;15.60;99.90
47961;DHT22;33721;48.852;9.936;2022-10-24T02:10:34;15.60;99.90
47961;DHT22;33721;48.852;9.936;2022-10-24T02:13:04;15.50;99.90
47961;DHT22;33721;48.852;9.936;2022-10-24T02:15:35;15.50;99.90
47961;DHT22;33721;48.852;9.936;2022-10-24T02:18:03;15.40;99.90
47961;DHT22;33721;48.852;9.936;2022-10-24T02:20:43;15.30;99.90
47961;DHT22;33721;48.852;9.936;2022-10-24T02:23:38;15.30;99.90
47961;DHT22;33721;48.852;9.936;2022-10-24T02:26:12;15.30;99.90
47961;DHT22;33721;48.852;9.936;2022-10-24T02:28:42;15.20;99.90
47961;DHT22;33721;48.852;9.936;2022-10-24T02:31:19;15.20;99.90
47961;DHT22;33721;48.852;9.936;2022-10-24T02:33:48;15.20;99.90
47961;DHT22;33721;48.852;9.936;2022-10-24T02:36:19;15.20;99.90
47961;DHT22;33721;48.852;9.936;2022-10-24T02:38:47;15.20;99.90
47961;DHT22;33721;48.852;9.936;2022-10-24T02:41:19;15.10;99.90
47961;DHT22;33721;48.852;9.936;2022-10-24T02:43:46;15.10;99.90
47961;DHT22;33721;48.852;9.936;2022-10-24T02:46:14;15.10;99.90
47961;DHT22;33721;48.852;9.936;2022-10-24T02:48:46;15.10;99.90
47961;DHT22;33721;48.852;9.936;2022-10-24T02:51:14;15.20;99.90
47961;DHT22;33721;48.852;9.936;2022-10-24T02:53:42;15.10;99.90
47961;DHT22;33721;48.852;9.936;2022-10-24T02:56:07;15.10;99.90
47961;DHT22;33721;48.852;9.936;2022-10-24T02:58:33;15.00;99.90
47961;DHT22;33721;48.852;9.936;2022-10-24T03:00:59;15.10;99.90
47961;DHT22;33721;48.852;9.936;2022-10-24T03:03:24;15.00;99.90
47961;DHT22;33721;48.852;9.936;2022-10-24T03:05:50;15.00;99.90
47961;DHT22;33721;48.852;9.936;2022-10-24T03:08:16;15.00;99.90
47961;DHT22;33721;48.852;9.936;2022-10-24T03:10:41;15.00;99.90
47961;DHT22;33721;48.852;9.936;2022-10-24T03:13:07;14.90;99.90
47961;DHT22;33721;48.852;9.936;2022-10-24T03:15:33;15.00;99.90
47961;DHT22;33721;48.852;9.936;2022-10-24T03:17:58;15.40;99.90
47961;DHT22;33721;48.852;9.936;2022-10-24T03:20:24;15.60;99.90
47961;DHT22;33721;48.852;9.936;2022-10-24T03:22:50;15.70;99.90
47961;DHT22;33721;48.852;9.936;2022-10-24T03:25:16;15.70;99.90
47961;DHT22;33721;48.852;9.936;2022-10-24T03:27:42;15.70;99.90
47961;DHT22;33721;48.852;9.936;2022-10-24T03:30:08;16.00;99.90
47961;DHT22;33721;48.852;9.936;2022-10-24T03:32:34;16.10;99.90
47961;DHT22;33721;48.852;9.936;2022-10-24T03:35:01;16.10;99.90
47961;DHT22;33721;48.852;9.936;2022-10-24T03:37:27;16.20;99.90
47961;DHT22;33721;48.852;9.936;2022-10-24T03:39:53;16.30;99.90
47961;DHT22;33721;48.852;9.936;2022-10-24T03:42:18;16.20;99.90
47961;DHT22;33721;48.852;9.936;2022-10-24T03:44:44;16.20;99.90
47961;DHT22;33721;48.852;9.936;2022-10-24T03:47:10;16.10;99.90
47961;DHT22;33721;48.852;9.936;2022-10-24T03:49:35;16.10;99.90
47961;DHT22;33721;48.852;9.936;2022-10-24T03:52:01;16.10;99.90
47961;DHT22;33721;48.852;9.936;2022-10-24T03:54:27;16.00;99.90
47961;DHT22;33721;48.852;9.936;2022-10-24T03:56:52;15.90;99.90
47961;DHT22;33721;48.852;9.936;2022-10-24T03:59:18;15.80;99.90
47961;DHT22;33721;48.852;9.936;2022-10-24T04:01:44;15.70;99.90
47961;DHT22;33721;48.852;9.936;2022-10-24T04:04:09;15.60;99.90
47961;DHT22;33721;48.852;9.936;2022-10-24T04:06:35;15.50;99.90
47961;DHT22;33721;48.852;9.936;2022-10-24T04:09:01;15.50;99.90
47961;DHT22;33721;48.852;9.936;2022-10-24T04:11:29;15.50;99.90
47961;DHT22;33721;48.852;9.936;2022-10-24T04:13:55;15.60;99.90
47961;DHT22;33721;48.852;9.936;2022-10-24T04:16:21;15.70;99.90
47961;DHT22;33721;48.852;9.936;2022-10-24T04:18:48;15.90;99.90
47961;DHT22;33721;48.852;9.936;2022-10-24T04:21:14;16.00;99.90
47961;DHT22;33721;48.852;9.936;2022-10-24T04:23:40;16.10;99.90
47961;DHT22;33721;48.852;9.936;2022-10-24T04:26:08;16.10;99.90
47961;DHT22;33721;48.852;9.936;2022-10-24T04:28:34;16.20;99.90
47961;DHT22;33721;48.852;9.936;2022-10-24T04:30:59;16.20;99.90
47961;DHT22;33721;48.852;9.936;2022-10-24T04:33:25;16.30;99.90
47961;DHT22;33721;48.852;9.936;2022-10-24T04:35:51;16.20;99.90
47961;DHT22;33721;48.852;9.936;2022-10-24T04:38:17;16.20;99.90
47961;DHT22;33721;48.852;9.936;2022-10-24T04:40:51;16.20;99.90
47961;DHT22;33721;48.852;9.936;2022-10-24T04:43:17;16.20;99.90
47961;DHT22;33721;48.852;9.936;2022-10-24T04:45:43;16.20;99.90
47961;DHT22;33721;48.852;9.936;2022-10-24T04:48:09;16.10;99.90
47961;DHT22;33721;48.852;9.936;2022-10-24T04:50:35;16.10;99.90
47961;DHT22;33721;48.852;9.936;2022-10-24T04:53:00;16.00;99.90
47961;DHT22;33721;48.852;9.936;2022-10-24T04:55:27;16.10;99.90
47961;DHT22;33721;48.852;9.936;2022-10-24T04:57:52;16.10;99.90
47961;DHT22;33721;48.852;9.936;2022-10-24T05:00:18;16.10;99.90
47961;DHT22;33721;48.852;9.936;2022-10-24T05:02:44;16.00;99.90
47961;DHT22;33721;48.852;9.936;2022-10-24T05:05:10;15.90;99.90
47961;DHT22;33721;48.852;9.936;2022-10-24T05:07:35;15.90;99.90
47961;DHT22;33721;48.852;9.936;2022-10-24T05:10:02;16.00;99.90
47961;DHT22;33721;48.852;9.936;2022-10-24T05:12:28;16.00;99.90
47961;DHT22;33721;48.852;9.936;2022-10-24T05:14:54;16.00;99.90
47961;DHT22;33721;48.852;9.936;2022-10-24T05:17:19;16.00;99.90
47961;DHT22;33721;48.852;9.936;2022-10-24T05:19:45;16.00;99.90
47961;DHT22;33721;48.852;9.936;2022-10-24T05:22:11;16.00;99.90
47961;DHT22;33721;48.852;9.936;2022-10-24T05:24:37;15.90;99.90
47961;DHT22;33721;48.852;9.936;2022-10-24T05:27:10;16.00;99.90
47961;DHT22;33721;48.852;9.936;2022-10-24T05:29:38;15.90;99.90
47961;DHT22;33721;48.852;9.936;2022-10-24T05:32:04;15.90;99.90
47961;DHT22;33721;48.852;9.936;2022-10-24T05:34:30;15.90;99.90
47961;DHT22;33721;48.852;9.936;2022-10-24T05:36:56;16.00;99.90
47961;DHT22;33721;48.852;9.936;2022-10-24T05:39:21;16.00;99.90
47961;DHT22;33721;48.852;9.936;2022-10-24T05:41:47;16.00;99.90
47961;DHT22;33721;48.852;9.936;2022-10-24T05:44:13;16.00;99.90
47961;DHT22;33721;48.852;9.936;2022-10-24T05:46:39;16.30;99.90
47961;DHT22;33721;48.852;9.936;2022-10-24T05:49:05;16.30;99.90
47961;DHT22;33721;48.852;9.936;2022-10-24T05:51:32;16.20;99.90
47961;DHT22;33721;48.852;9.936;2022-10-24T05:53:58;16.20;99.90
47961;DHT22;33721;48.852;9.936;2022-10-24T05:56:24;16.20;99.90
47961;DHT22;33721;48.852;9.936;2022-10-24T05:58:50;16.20;99.90
47961;DHT22;33721;48.852;9.936;2022-10-24T06:01:16;16.10;99.90
47961;DHT22;33721;48.852;9.936;2022-10-24T06:03:42;16.10;99.90
47961;DHT22;33721;48.852;9.936;2022-10-24T06:06:08;16.10;99.90
47961;DHT22;33721;48.852;9.936;2022-10-24T06:08:35;16.10;99.90
47961;DHT22;33721;48.852;9.936;2022-10-24T06:11:02;16.10;99.90
47961;DHT22;33721;48.852;9.936;2022-10-24T06:13:28;16.10;99.90
47961;DHT22;33721;48.852;9.936;2022-10-24T06:15:54;16.10;99.90
47961;DHT22;33721;48.852;9.936;2022-10-24T06:18:19;16.10;99.90
47961;DHT22;33721;48.852;9.936;2022-10-24T06:20:45;16.10;99.90
47961;DHT22;33721;48.852;9.936;2022-10-24T06:23:10;16.10;99.90
47961;DHT22;33721;48.852;9.936;2022-10-24T06:25:38;16.10;99.90
47961;DHT22;33721;48.852;9.936;2022-10-24T06:28:04;16.10;99.90
47961;DHT22;33721;48.852;9.936;2022-10-24T06:30:32;16.10;99.90
47961;DHT22;33721;48.852;9.936;2022-10-24T06:32:58;16.10;99.90
47961;DHT22;33721;48.852;9.936;2022-10-24T06:35:23;16.10;99.90
47961;DHT22;33721;48.852;9.936;2022-10-24T06:37:49;16.10;99.90
47961;DHT22;33721;48.852;9.936;2022-10-24T06:40:16;16.10;99.90
47961;DHT22;33721;48.852;9.936;2022-10-24T06:42:42;16.20;99.90
47961;DHT22;33721;48.852;9.936;2022-10-24T06:45:07;16.20;99.90
47961;DHT22;33721;48.852;9.936;2022-10-24T06:47:33;16.10;99.90
47961;DHT22;33721;48.852;9.936;2022-10-24T06:49:59;16.10;99.90
47961;DHT22;33721;48.852;9.936;2022-10-24T06:52:24;16.10;99.90
47961;DHT22;33721;48.852;9.936;2022-10-24T06:54:50;16.10;99.90
47961;DHT22;33721;48.852;9.936;2022-10-24T06:57:16;16.10;99.90
47961;DHT22;33721;48.852;9.936;2022-10-24T06:59:42;16.10;99.90
47961;DHT22;33721;48.852;9.936;2022-10-24T07:02:11;16.10;99.90
47961;DHT22;33721;48.852;9.936;2022-10-24T07:04:38;16.20;99.90
47961;DHT22;33721;48.852;9.936;2022-10-24T07:07:04;16.20;99.90
47961;DHT22;33721;48.852;9.936;2022-10-24T07:09:29;16.10;99.90
47961;DHT22;33721;48.852;9.936;2022-10-24T07:11:55;16.10;99.90
47961;DHT22;33721;48.852;9.936;2022-10-24T07:14:21;16.00;99.90
47961;DHT22;33721;48.852;9.936;2022-10-24T07:16:47;16.00;99.90
47961;DHT22;33721;48.852;9.936;2022-10-24T07:19:12;16.00;99.90
47961;DHT22;33721;48.852;9.936;2022-10-24T07:21:38;16.00;99.90
47961;DHT22;33721;48.852;9.936;2022-10-24T07:24:04;16.00;99.90
47961;DHT22;33721;48.852;9.936;2022-10-24T07:26:30;15.90;99.90
47961;DHT22;33721;48.852;9.936;2022-10-24T07:28:58;15.80;99.90
47961;DHT22;33721;48.852;9.936;2022-10-24T07:31:27;15.60;99.90
47961;DHT22;33721;48.852;9.936;2022-10-24T07:33:54;15.50;99.90
47961;DHT22;33721;48.852;9.936;2022-10-24T07:36:22;15.40;99.90
47961;DHT22;33721;48.852;9.936;2022-10-24T07:38:49;15.40;99.90
47961;DHT22;33721;48.852;9.936;2022-10-24T07:41:15;15.30;99.90
47961;DHT22;33721;48.852;9.936;2022-10-24T07:43:41;15.20;99.90
47961;DHT22;33721;48.852;9.936;2022-10-24T07:46:12;15.20;99.90
47961;DHT22;33721;48.852;9.936;2022-10-24T07:48:38;15.20;99.90
47961;DHT22;33721;48.852;9.936;2022-10-24T07:51:08;15.30;99.90
47961;DHT22;33721;48.852;9.936;2022-10-24T07:53:34;15.30;99.90
47961;DHT22;33721;48.852;9.936;2022-10-24T07:56:00;15.40;99.90
47961;DHT22;33721;48.852;9.936;2022-10-24T07:58:27;15.40;99.90
47961;DHT22;33721;48.852;9.936;2022-10-24T08:00:53;15.40;99.90
47961;DHT22;33721;48.852;9.936;2022-10-24T08:03:18;15.20;99.90
47961;DHT22;33721;48.852;9.936;2022-10-24T08:05:45;15.30;99.90
47961;DHT22;33721;48.852;9.936;2022-10-24T08:08:11;15.30;99.90
47961;DHT22;33721;48.852;9.936;2022-10-24T08:10:37;15.30;99.90
47961;DHT22;33721;48.852;9.936;2022-10-24T08:13:02;15.30;99.90
47961;DHT22;33721;48.852;9.936;2022-10-24T08:15:28;15.40;99.90
47961;DHT22;33721;48.852;9.936;2022-10-24T08:17:54;15.30;99.90
47961;DHT22;33721;48.852;9.936;2022-10-24T08:20:20;15.20;99.90
47961;DHT22;33721;48.852;9.936;2022-10-24T08:22:46;15.10;99.90
47961;DHT22;33721;48.852;9.936;2022-10-24T08:25:12;15.00;99.90
47961;DHT22;33721;48.852;9.936;2022-10-24T08:27:39;15.00;99.90
47961;DHT22;33721;48.852;9.936;2022-10-24T08:30:06;15.00;99.90
47961;DHT22;33721;48.852;9.936;2022-10-24T08:32:33;15.00;99.90
47961;DHT22;33721;48.852;9.936;2022-10-24T08:34:59;15.00;99.90
47961;DHT22;33721;48.852;9.936;2022-10-24T08:37:24;15.00;99.90
47961;DHT22;33721;48.852;9.936;2022-10-24T08:39:50;14.90;99.90
47961;DHT22;33721;48.852;9.936;2022-10-24T08:42:21;14.80;99.90
47961;DHT22;33721;48.852;9.936;2022-10-24T08:44:47;14.80;99.90
47961;DHT22;33721;48.852;9.936;2022-10-24T08:52:43;14.80;99.90
47961;DHT22;33721;48.852;9.936;2022-10-24T08:55:15;14.80;99.90
47961;DHT22;33721;48.852;9.936;2022-10-24T08:57:45;14.80;99.90
47961;DHT22;33721;48.852;9.936;2022-10-24T09:00:24;14.80;99.90
47961;DHT22;33721;48.852;9.936;2022-10-24T09:03:19;14.80;99.90
47961;DHT22;33721;48.852;9.936;2022-10-24T09:05:50;14.90;99.90
47961;DHT22;33721;48.852;9.936;2022-10-24T09:11:05;14.80;99.90
47961;DHT22;33721;48.852;9.936;2022-10-24T09:13:34;14.80;99.90
47961;DHT22;33721;48.852;9.936;2022-10-24T09:16:00;14.80;99.90
47961;DHT22;33721;48.852;9.936;2022-10-24T09:18:38;14.70;99.90
47961;DHT22;33721;48.852;9.936;2022-10-24T09:21:06;14.70;99.90
47961;DHT22;33721;48.852;9.936;2022-10-24T09:23:34;14.70;99.90
47961;DHT22;33721;48.852;9.936;2022-10-24T09:26:05;14.70;99.90
47961;DHT22;33721;48.852;9.936;2022-10-24T09:28:35;14.70;99.90
47961;DHT22;33721;48.852;9.936;2022-10-24T09:31:03;14.80;99.90
47961;DHT22;33721;48.852;9.936;2022-10-24T09:33:38;14.80;99.90
47961;DHT22;33721;48.852;9.936;2022-10-24T09:36:10;14.80;99.90
47961;DHT22;33721;48.852;9.936;2022-10-24T09:38:38;14.90;99.90
47961;DHT22;33721;48.852;9.936;2022-10-24T09:41:21;15.00;99.90
47961;DHT22;33721;48.852;9.936;2022-10-24T09:43:59;15.10;99.90
47961;DHT22;33721;48.852;9.936;2022-10-24T09:46:35;15.30;99.90
47961;DHT22;33721;48.852;9.936;2022-10-24T09:49:21;15.30;99.90
47961;DHT22;33721;48.852;9.936;2022-10-24T09:52:17;15.30;99.90
47961;DHT22;33721;48.852;9.936;2022-10-24T09:54:44;15.30;99.90
47961;DHT22;33721;48.852;9.936;2022-10-24T09:57:14;15.30;99.90
47961;DHT22;33721;48.852;9.936;2022-10-24T09:59:43;15.30;99.90
47961;DHT22;33721;48.852;9.936;2022-10-24T10:04:39;15.40;99.90
47961;DHT22;33721;48.852;9.936;2022-10-24T10:07:10;15.50;99.90
47961;DHT22;33721;48.852;9.936;2022-10-24T10:09:38;15.50;99.90
47961;DHT22;33721;48.852;9.936;2022-10-24T10:17:53;15.50;99.90
47961;DHT22;33721;48.852;9.936;2022-10-24T10:22:49;15.40;99.90
47961;DHT22;33721;48.852;9.936;2022-10-24T10:25:31;15.40;99.90
47961;DHT22;33721;48.852;9.936;2022-10-24T10:27:57;15.40;99.90
47961;DHT22;33721;48.852;9.936;2022-10-24T10:30:23;15.40;99.90
47961;DHT22;33721;48.852;9.936;2022-10-24T10:36:23;15.40;99.90
47961;DHT22;33721;48.852;9.936;2022-10-24T10:50:03;16.10;99.90
47961;DHT22;33721;48.852;9.936;2022-10-24T10:52:49;16.20;99.90
47961;DHT22;33721;48.852;9.936;2022-10-24T10:55:45;16.10;99.90
47961;DHT22;33721;48.852;9.936;2022-10-24T11:09:48;16.00;99.90
47961;DHT22;33721;48.852;9.936;2022-10-24T11:12:33;16.00;99.90
47961;DHT22;33721;48.852;9.936;2022-10-24T11:15:05;16.00;99.90
47961;DHT22;33721;48.852;9.936;2022-10-24T11:17:43;16.00;99.90
47961;DHT22;33721;48.852;9.936;2022-10-24T11:20:30;16.00;99.90
47961;DHT22;33721;48.852;9.936;2022-10-24T11:26:01;16.10;99.90
47961;DHT22;33721;48.852;9.936;2022-10-24T11:31:36;16.10;99.90
47961;DHT22;33721;48.852;9.936;2022-10-24T11:34:14;16.20;99.90
47961;DHT22;33721;48.852;9.936;2022-10-24T11:37:06;16.20;99.90
47961;DHT22;33721;48.852;9.936;2022-10-24T11:39:46;16.30;99.90
47961;DHT22;33721;48.852;9.936;2022-10-24T11:45:15;16.50;99.90
47961;DHT22;33721;48.852;9.936;2022-10-24T11:48:05;16.60;99.90
47961;DHT22;33721;48.852;9.936;2022-10-24T11:56:16;17.00;99.90
47961;DHT22;33721;48.852;9.936;2022-10-24T12:04:20;16.90;99.90
47961;DHT22;33721;48.852;9.936;2022-10-24T12:06:58;16.90;99.90
47961;DHT22;33721;48.852;9.936;2022-10-24T12:14:51;16.80;99.90
47961;DHT22;33721;48.852;9.936;2022-10-24T12:20:10;16.80;99.90
47961;DHT22;33721;48.852;9.936;2022-10-24T12:22:41;16.80;99.90
47961;DHT22;33721;48.852;9.936;2022-10-24T12:27:40;16.90;99.90
47961;DHT22;33721;48.852;9.936;2022-10-24T12:32:37;16.80;99.90
47961;DHT22;33721;48.852;9.936;2022-10-24T12:37:55;16.80;99.90
47961;DHT22;33721;48.852;9.936;2022-10-24T12:43:33;16.70;99.90
47961;DHT22;33721;48.852;9.936;2022-10-24T12:48:40;16.80;99.90
47961;DHT22;33721;48.852;9.936;2022-10-24T12:51:37;16.80;99.90
47961;DHT22;33721;48.852;9.936;2022-10-24T13:01:42;16.70;99.90
47961;DHT22;33721;48.852;9.936;2022-10-24T13:04:22;16.80;99.90
47961;DHT22;33721;48.852;9.936;2022-10-24T13:07:19;16.80;99.90
47961;DHT22;33721;48.852;9.936;2022-10-24T13:13:13;16.90;99.90
47961;DHT22;33721;48.852;9.936;2022-10-24T13:16:06;16.90;99.90
47961;DHT22;33721;48.852;9.936;2022-10-24T13:21:31;17.20;99.90
47961;DHT22;33721;48.852;9.936;2022-10-24T13:24:42;17.20;99.90
47961;DHT22;33721;48.852;9.936;2022-10-24T13:37:33;17.20;99.90
47961;DHT22;33721;48.852;9.936;2022-10-24T13:40:27;17.00;99.90
47961;DHT22;33721;48.852;9.936;2022-10-24T13:43:05;17.00;99.90
47961;DHT22;33721;48.852;9.936;2022-10-24T13:45:47;16.90;99.90
47961;DHT22;33721;48.852;9.936;2022-10-24T13:48:19;16.80;99.90
47961;DHT22;33721;48.852;9.936;2022-10-24T13:51:34;16.80;99.90
47961;DHT22;33721;48.852;9.936;2022-10-24T13:53:48;16.80;99.90
47961;DHT22;33721;48.852;9.936;2022-10-24T13:56:16;16.70;99.90
47961;DHT22;33721;48.852;9.936;2022-10-24T13:58:43;16.70;99.90
47961;DHT22;33721;48.852;9.936;2022-10-24T14:01:18;16.60;99.90
47961;DHT22;33721;48.852;9.936;2022-10-24T14:03:46;16.60;99.90
47961;DHT22;33721;48.852;9.936;2022-10-24T14:06:12;16.60;99.90
47961;DHT22;33721;48.852;9.936;2022-10-24T14:08:49;16.60;99.90
47961;DHT22;33721;48.852;9.936;2022-10-24T14:11:20;16.60;99.90
47961;DHT22;33721;48.852;9.936;2022-10-24T14:13:48;16.50;99.90
47961;DHT22;33721;48.852;9.936;2022-10-24T14:16:15;16.40;99.90
47961;DHT22;33721;48.852;9.936;2022-10-24T14:18:42;16.40;99.90
47961;DHT22;33721;48.852;9.936;2022-10-24T14:21:19;16.30;99.90
47961;DHT22;33721;48.852;9.936;2022-10-24T14:23:58;16.30;99.90
47961;DHT22;33721;48.852;9.936;2022-10-24T14:26:26;16.30;99.90
47961;DHT22;33721;48.852;9.936;2022-10-24T14:28:55;16.20;99.90
47961;DHT22;33721;48.852;9.936;2022-10-24T14:33:50;16.20;99.90
47961;DHT22;33721;48.852;9.936;2022-10-24T14:36:21;16.20;99.90
47961;DHT22;33721;48.852;9.936;2022-10-24T14:38:48;16.20;99.90
47961;DHT22;33721;48.852;9.936;2022-10-24T14:41:16;16.20;99.90
47961;DHT22;33721;48.852;9.936;2022-10-24T14:43:43;16.20;99.90
47961;DHT22;33721;48.852;9.936;2022-10-24T14:48:44;16.20;99.90
47961;DHT22;33721;48.852;9.936;2022-10-24T14:53:48;16.10;99.90
47961;DHT22;33721;48.852;9.936;2022-10-24T14:56:35;16.10;99.90
47961;DHT22;33721;48.852;9.936;2022-10-24T14:59:06;16.00;99.90
47961;DHT22;33721;48.852;9.936;2022-10-24T15:01:55;16.00;99.90
47961;DHT22;33721;48.852;9.936;2022-10-24T15:04:38;15.90;99.90
47961;DHT22;33721;48.852;9.936;2022-10-24T15:07:35;15.80;99.90
47961;DHT22;33721;48.852;9.936;2022-10-24T15:12:39;16.10;99.90
47961;DHT22;33721;48.852;9.936;2022-10-24T15:17:51;16.60;99.90
47961;DHT22;33721;48.852;9.936;2022-10-24T15:20:20;16.80;99.90
47961;DHT22;33721;48.852;9.936;2022-10-24T15:22:48;16.90;99.90
47961;DHT22;33721;48.852;9.936;2022-10-24T15:25:21;16.80;99.90
47961;DHT22;33721;48.852;9.936;2022-10-24T15:27:47;16.60;99.90
47961;DHT22;33721;48.852;9.936;2022-10-24T15:32:39;16.30;99.90
47961;DHT22;33721;48.852;9.936;2022-10-24T15:35:05;16.30;99.90
47961;DHT22;33721;48.852;9.936;2022-10-24T15:37:30;16.20;99.90
47961;DHT22;33721;48.852;9.936;2022-10-24T15:40:01;16.20;99.90
47961;DHT22;33721;48.852;9.936;2022-10-24T15:42:27;16.20;99.90
47961;DHT22;33721;48.852;9.936;2022-10-24T15:44:52;16.10;99.90
47961;DHT22;33721;48.852;9.936;2022-10-24T15:47:18;16.00;99.90
47961;DHT22;33721;48.852;9.936;2022-10-24T15:49:49;15.90;99.90
47961;DHT22;33721;48.852;9.936;2022-10-24T15:52:18;15.90;99.90
47961;DHT22;33721;48.852;9.936;2022-10-24T15:54:44;15.90;99.90
47961;DHT22;33721;48.852;9.936;2022-10-24T15:57:13;15.70;99.90
47961;DHT22;33721;48.852;9.936;2022-10-24T15:59:39;15.60;99.90
47961;DHT22;33721;48.852;9.936;2022-10-24T16:02:13;15.50;99.90
47961;DHT22;33721;48.852;9.936;2022-10-24T16:04:40;15.40;99.90
47961;DHT22;33721;48.852;9.936;2022-10-24T16:07:08;15.40;99.90
47961;DHT22;33721;48.852;9.936;2022-10-24T16:09:33;15.40;99.90
47961;DHT22;33721;48.852;9.936;2022-10-24T16:11:59;15.40;99.90
47961;DHT22;33721;48.852;9.936;2022-10-24T16:14:25;15.30;99.90
47961;DHT22;33721;48.852;9.936;2022-10-24T16:16:51;15.30;99.90
47961;DHT22;33721;48.852;9.936;2022-10-24T16:19:17;15.20;99.90
47961;DHT22;33721;48.852;9.936;2022-10-24T16:21:42;15.20;99.90
47961;DHT22;33721;48.852;9.936;2022-10-24T16:24:09;15.10;99.90
47961;DHT22;33721;48.852;9.936;2022-10-24T16:26:36;15.10;99.90
47961;DHT22;33721;48.852;9.936;2022-10-24T16:29:03;15.00;99.90
47961;DHT22;33721;48.852;9.936;2022-10-24T16:31:28;15.00;99.90
47961;DHT22;33721;48.852;9.936;2022-10-24T16:33:54;15.00;99.90
47961;DHT22;33721;48.852;9.936;2022-10-24T16:36:20;14.90;99.90
47961;DHT22;33721;48.852;9.936;2022-10-24T16:38:45;14.80;99.90
47961;DHT22;33721;48.852;9.936;2022-10-24T16:41:16;14.80;99.90
47961;DHT22;33721;48.852;9.936;2022-10-24T16:43:42;14.70;99.90
47961;DHT22;33721;48.852;9.936;2022-10-24T16:46:13;14.60;99.90
47961;DHT22;33721;48.852;9.936;2022-10-24T16:48:39;14.50;99.90
47961;DHT22;33721;48.852;9.936;2022-10-24T16:51:14;14.40;99.90
47961;DHT22;33721;48.852;9.936;2022-10-24T16:53:40;14.30;99.90
47961;DHT22;33721;48.852;9.936;2022-10-24T16:56:09;14.40;99.90
47961;DHT22;33721;48.852;9.936;2022-10-24T16:58:35;14.30;99.90
47961;DHT22;33721;48.852;9.936;2022-10-24T17:01:04;14.30;99.90
47961;DHT22;33721;48.852;9.936;2022-10-24T17:03:31;14.30;99.90
47961;DHT22;33721;48.852;9.936;2022-10-24T17:05:56;14.20;99.90
47961;DHT22;33721;48.852;9.936;2022-10-24T17:08:22;14.00;99.90
47961;DHT22;33721;48.852;9.936;2022-10-24T17:10:48;13.90;99.90
47961;DHT22;33721;48.852;9.936;2022-10-24T17:13:14;13.80;99.90
47961;DHT22;33721;48.852;9.936;2022-10-24T17:15:40;13.90;99.90
47961;DHT22;33721;48.852;9.936;2022-10-24T17:18:05;13.90;99.90
47961;DHT22;33721;48.852;9.936;2022-10-24T17:20:32;13.80;99.90
47961;DHT22;33721;48.852;9.936;2022-10-24T17:22:58;13.90;99.90
47961;DHT22;33721;48.852;9.936;2022-10-24T17:25:26;13.80;99.90
47961;DHT22;33721;48.852;9.936;2022-10-24T17:27:53;13.90;99.90
47961;DHT22;33721;48.852;9.936;2022-10-24T17:30:22;13.90;99.90
47961;DHT22;33721;48.852;9.936;2022-10-24T17:32:48;13.90;99.90
47961;DHT22;33721;48.852;9.936;2022-10-24T17:35:16;14.00;99.90
47961;DHT22;33721;48.852;9.936;2022-10-24T17:40:44;14.00;99.90
47961;DHT22;33721;48.852;9.936;2022-10-24T17:43:20;14.00;99.90
47961;DHT22;33721;48.852;9.936;2022-10-24T17:45:47;14.00;99.90
47961;DHT22;33721;48.852;9.936;2022-10-24T17:48:13;14.00;99.90
47961;DHT22;33721;48.852;9.936;2022-10-24T17:50:39;14.10;99.90
47961;DHT22;33721;48.852;9.936;2022-10-24T17:53:04;14.10;99.90
47961;DHT22;33721;48.852;9.936;2022-10-24T17:55:32;14.20;99.90
47961;DHT22;33721;48.852;9.936;2022-10-24T17:57:58;14.20;99.90
47961;DHT22;33721;48.852;9.936;2022-10-24T18:00:24;14.20;99.90
47961;DHT22;33721;48.852;9.936;2022-10-24T18:02:50;14.10;99.90
47961;DHT22;33721;48.852;9.936;2022-10-24T18:05:18;14.10;99.90
47961;DHT22;33721;48.852;9.936;2022-10-24T18:07:44;14.20;99.90